sensor_id;sensor_type;location;lat;lon;timestamp;pressure;altitude;pressure_sealevel;temperature;humidity
61678;BME280;47575;52.054;4.334;2022-12-29T00:01:25;100191.09;;;11.00;100.00
61678;BME280;47575;52.054;4.334;2022-12-29T00:03:53;100177.22;;;10.98;100.00
61678;BME280;47575;52.054;4.334;2022-12-29T00:06:23;100183.38;;;10.97;100.00
61678;BME280;47575;52.054;4.334;2022-12-29T00:08:50;100180.59;;;11.00;100.00
61678;BME280;47575;52.054;4.334;2022-12-29T00:11:18;100160.38;;;11.04;100.00
61678;BME280;47575;52.054;4.334;2022-12-29T00:13:45;100156.97;;;11.02;100.00
61678;BME280;47575;52.054;4.334;2022-12-29T00:16:30;100143.88;;;11.02;100.00
61678;BME280;47575;52.054;4.334;2022-12-29T00:18:59;100138.53;;;11.05;100.00
61678;BME280;47575;52.054;4.334;2022-12-29T00:21:26;100132.44;;;11.04;100.00
61678;BME280;47575;52.054;4.334;2022-12-29T00:24:12;100139.22;;;11.08;100.00
61678;BME280;47575;52.054;4.334;2022-12-29T00:26:58;100119.97;;;11.09;100.00
61678;BME280;47575;52.054;4.334;2022-12-29T00:29:52;100116.38;;;11.12;100.00
61678;BME280;47575;52.054;4.334;2022-12-29T00:32:36;100110.22;;;11.13;100.00
61678;BME280;47575;52.054;4.334;2022-12-29T00:35:28;100123.22;;;11.15;100.00
61678;BME280;47575;52.054;4.334;2022-12-29T00:37:55;100113.59;;;11.15;100.00
61678;BME280;47575;52.054;4.334;2022-12-29T00:40:41;100107.75;;;11.10;100.00
61678;BME280;47575;52.054;4.334;2022-12-29T00:43:25;100106.16;;;11.06;100.00
61678;BME280;47575;52.054;4.334;2022-12-29T00:46:10;100101.78;;;11.06;100.00
61678;BME280;47575;52.054;4.334;2022-12-29T00:48:38;100094.91;;;11.04;100.00
61678;BME280;47575;52.054;4.334;2022-12-29T00:51:24;100098.47;;;11.03;100.00
61678;BME280;47575;52.054;4.334;2022-12-29T00:53:51;100111.69;;;11.00;100.00
61678;BME280;47575;52.054;4.334;2022-12-29T00:56:18;100090.09;;;10.95;100.00
61678;BME280;47575;52.054;4.334;2022-12-29T00:58:45;100091.94;;;10.93;100.00
61678;BME280;47575;52.054;4.334;2022-12-29T01:01:12;100098.00;;;10.93;100.00
61678;BME280;47575;52.054;4.334;2022-12-29T01:03:39;100081.59;;;10.90;100.00
61678;BME280;47575;52.054;4.334;2022-12-29T01:06:07;100092.84;;;10.92;100.00
61678;BME280;47575;52.054;4.334;2022-12-29T01:08:35;100091.16;;;10.91;100.00
61678;BME280;47575;52.054;4.334;2022-12-29T01:11:03;100102.41;;;10.93;100.00
61678;BME280;47575;52.054;4.334;2022-12-29T01:13:30;100118.25;;;10.90;100.00
61678;BME280;47575;52.054;4.334;2022-12-29T01:15:57;100113.66;;;10.95;100.00
61678;BME280;47575;52.054;4.334;2022-12-29T01:18:25;100127.63;;;10.95;100.00
61678;BME280;47575;52.054;4.334;2022-12-29T01:20:57;100131.09;;;10.96;100.00
61678;BME280;47575;52.054;4.334;2022-12-29T01:23:24;100103.75;;;11.01;100.00
61678;BME280;47575;52.054;4.334;2022-12-29T01:25:53;100118.84;;;10.96;100.00
61678;BME280;47575;52.054;4.334;2022-12-29T01:28:20;100114.00;;;10.87;100.00
61678;BME280;47575;52.054;4.334;2022-12-29T01:30:47;100109.69;;;10.86;100.00
61678;BME280;47575;52.054;4.334;2022-12-29T01:33:14;100112.53;;;10.81;100.00
61678;BME280;47575;52.054;4.334;2022-12-29T01:35:41;100101.22;;;10.81;100.00
61678;BME280;47575;52.054;4.334;2022-12-29T01:38:08;100100.41;;;10.79;100.00
61678;BME280;47575;52.054;4.334;2022-12-29T01:40:42;100097.78;;;10.79;100.00
61678;BME280;47575;52.054;4.334;2022-12-29T01:43:11;100093.34;;;10.81;100.00
61678;BME280;47575;52.054;4.334;2022-12-29T01:45:40;100094.06;;;10.85;100.00
61678;BME280;47575;52.054;4.334;2022-12-29T01:48:08;100097.44;;;10.87;100.00
61678;BME280;47575;52.054;4.334;2022-12-29T01:50:37;100101.72;;;10.89;100.00
61678;BME280;47575;52.054;4.334;2022-12-29T01:53:07;100100.56;;;10.95;100.00
61678;BME280;47575;52.054;4.334;2022-12-29T01:55:38;100103.91;;;10.98;100.00
61678;BME280;47575;52.054;4.334;2022-12-29T01:58:07;100096.03;;;10.98;100.00
61678;BME280;47575;52.054;4.334;2022-12-29T02:00:36;100088.25;;;10.97;100.00
61678;BME280;47575;52.054;4.334;2022-12-29T02:03:03;100102.47;;;10.91;100.00
61678;BME280;47575;52.054;4.334;2022-12-29T02:05:33;100108.75;;;10.87;100.00
61678;BME280;47575;52.054;4.334;2022-12-29T02:08:03;100137.00;;;10.80;100.00
61678;BME280;47575;52.054;4.334;2022-12-29T02:10:33;100104.94;;;10.75;100.00
61678;BME280;47575;52.054;4.334;2022-12-29T02:13:01;100106.22;;;10.67;100.00
61678;BME280;47575;52.054;4.334;2022-12-29T02:15:32;100097.44;;;10.68;100.00
61678;BME280;47575;52.054;4.334;2022-12-29T02:18:06;100105.34;;;10.66;100.00
61678;BME280;47575;52.054;4.334;2022-12-29T02:23:28;100085.22;;;10.48;100.00
61678;BME280;47575;52.054;4.334;2022-12-29T02:26:05;100090.00;;;10.38;100.00
61678;BME280;47575;52.054;4.334;2022-12-29T02:28:46;100088.72;;;10.28;100.00
61678;BME280;47575;52.054;4.334;2022-12-29T02:31:19;100087.44;;;10.16;100.00
61678;BME280;47575;52.054;4.334;2022-12-29T02:33:52;100081.00;;;10.03;100.00
61678;BME280;47575;52.054;4.334;2022-12-29T02:36:25;100084.94;;;9.93;100.00
61678;BME280;47575;52.054;4.334;2022-12-29T02:38:59;100089.38;;;9.91;100.00
61678;BME280;47575;52.054;4.334;2022-12-29T02:41:30;100084.25;;;9.88;100.00
61678;BME280;47575;52.054;4.334;2022-12-29T02:43:59;100082.31;;;9.93;100.00
61678;BME280;47575;52.054;4.334;2022-12-29T02:46:32;100078.06;;;9.90;100.00
61678;BME280;47575;52.054;4.334;2022-12-29T02:49:03;100083.25;;;9.92;100.00
61678;BME280;47575;52.054;4.334;2022-12-29T02:51:34;100081.34;;;9.95;100.00
61678;BME280;47575;52.054;4.334;2022-12-29T02:54:02;100070.81;;;9.97;100.00
61678;BME280;47575;52.054;4.334;2022-12-29T02:56:47;100087.16;;;10.02;100.00
61678;BME280;47575;52.054;4.334;2022-12-29T02:59:15;100077.38;;;10.07;100.00
61678;BME280;47575;52.054;4.334;2022-12-29T03:01:57;100083.38;;;10.09;100.00
61678;BME280;47575;52.054;4.334;2022-12-29T03:04:55;100092.22;;;10.07;100.00
61678;BME280;47575;52.054;4.334;2022-12-29T03:07:28;100084.16;;;10.11;100.00
61678;BME280;47575;52.054;4.334;2022-12-29T03:09:59;100079.13;;;10.07;100.00
61678;BME280;47575;52.054;4.334;2022-12-29T03:12:29;100074.94;;;10.03;100.00
61678;BME280;47575;52.054;4.334;2022-12-29T03:15:16;100081.94;;;10.02;100.00
61678;BME280;47575;52.054;4.334;2022-12-29T03:18:06;100067.28;;;9.98;100.00
61678;BME280;47575;52.054;4.334;2022-12-29T03:20:36;100066.38;;;9.99;100.00
61678;BME280;47575;52.054;4.334;2022-12-29T03:23:05;100068.78;;;10.04;100.00
61678;BME280;47575;52.054;4.334;2022-12-29T03:25:35;100066.06;;;10.07;100.00
61678;BME280;47575;52.054;4.334;2022-12-29T03:28:08;100064.94;;;10.12;100.00
61678;BME280;47575;52.054;4.334;2022-12-29T03:30:41;100056.19;;;10.13;100.00
61678;BME280;47575;52.054;4.334;2022-12-29T03:33:12;100056.06;;;10.16;100.00
61678;BME280;47575;52.054;4.334;2022-12-29T03:35:41;100057.03;;;10.14;100.00
61678;BME280;47575;52.054;4.334;2022-12-29T03:38:13;100067.13;;;10.23;100.00
61678;BME280;47575;52.054;4.334;2022-12-29T03:40:42;100068.69;;;10.27;100.00
61678;BME280;47575;52.054;4.334;2022-12-29T03:43:10;100078.19;;;10.30;100.00
61678;BME280;47575;52.054;4.334;2022-12-29T03:45:39;100078.03;;;10.33;100.00
61678;BME280;47575;52.054;4.334;2022-12-29T03:48:06;100084.13;;;10.33;100.00
61678;BME280;47575;52.054;4.334;2022-12-29T03:50:38;100061.94;;;10.42;100.00
61678;BME280;47575;52.054;4.334;2022-12-29T03:53:06;100047.38;;;10.36;100.00
61678;BME280;47575;52.054;4.334;2022-12-29T03:55:33;100066.47;;;10.38;100.00
61678;BME280;47575;52.054;4.334;2022-12-29T03:58:00;100058.28;;;10.25;100.00
61678;BME280;47575;52.054;4.334;2022-12-29T04:00:47;100053.91;;;10.26;100.00
61678;BME280;47575;52.054;4.334;2022-12-29T04:03:15;100055.69;;;10.25;100.00
61678;BME280;47575;52.054;4.334;2022-12-29T04:05:43;100062.75;;;10.23;100.00
61678;BME280;47575;52.054;4.334;2022-12-29T04:08:11;100066.22;;;10.24;100.00
61678;BME280;47575;52.054;4.334;2022-12-29T04:10:38;100059.38;;;10.20;100.00
61678;BME280;47575;52.054;4.334;2022-12-29T04:13:06;100036.13;;;10.14;100.00
61678;BME280;47575;52.054;4.334;2022-12-29T04:15:33;100046.06;;;10.06;100.00
61678;BME280;47575;52.054;4.334;2022-12-29T04:18:01;100052.25;;;10.03;100.00
61678;BME280;47575;52.054;4.334;2022-12-29T04:20:28;100041.19;;;9.96;100.00
61678;BME280;47575;52.054;4.334;2022-12-29T04:23:14;100037.66;;;9.97;100.00
61678;BME280;47575;52.054;4.334;2022-12-29T04:25:44;100048.94;;;9.99;100.00
61678;BME280;47575;52.054;4.334;2022-12-29T04:28:13;100044.56;;;10.00;100.00
61678;BME280;47575;52.054;4.334;2022-12-29T04:31:09;100039.41;;;9.98;100.00
61678;BME280;47575;52.054;4.334;2022-12-29T04:33:39;100054.16;;;9.99;100.00
61678;BME280;47575;52.054;4.334;2022-12-29T04:36:06;100056.88;;;9.96;100.00
61678;BME280;47575;52.054;4.334;2022-12-29T04:38:36;100063.34;;;9.88;100.00
61678;BME280;47575;52.054;4.334;2022-12-29T04:41:04;100058.34;;;9.83;100.00
61678;BME280;47575;52.054;4.334;2022-12-29T04:43:33;100054.84;;;9.83;100.00
61678;BME280;47575;52.054;4.334;2022-12-29T04:46:08;100066.81;;;9.88;100.00
61678;BME280;47575;52.054;4.334;2022-12-29T04:48:52;100068.59;;;9.88;100.00
61678;BME280;47575;52.054;4.334;2022-12-29T04:51:49;100059.97;;;9.86;100.00
61678;BME280;47575;52.054;4.334;2022-12-29T04:54:18;100074.91;;;9.82;100.00
61678;BME280;47575;52.054;4.334;2022-12-29T04:56:53;100057.66;;;9.78;100.00
61678;BME280;47575;52.054;4.334;2022-12-29T04:59:20;100065.44;;;9.80;100.00
61678;BME280;47575;52.054;4.334;2022-12-29T05:01:50;100067.28;;;9.78;100.00
61678;BME280;47575;52.054;4.334;2022-12-29T05:04:17;100075.91;;;9.80;100.00
61678;BME280;47575;52.054;4.334;2022-12-29T05:06:44;100099.16;;;9.86;100.00
61678;BME280;47575;52.054;4.334;2022-12-29T05:09:11;100091.41;;;9.84;100.00
61678;BME280;47575;52.054;4.334;2022-12-29T05:11:40;100081.72;;;9.86;100.00
61678;BME280;47575;52.054;4.334;2022-12-29T05:14:09;100085.31;;;9.84;100.00
61678;BME280;47575;52.054;4.334;2022-12-29T05:16:37;100078.50;;;9.80;100.00
61678;BME280;47575;52.054;4.334;2022-12-29T05:19:04;100064.41;;;9.84;100.00
61678;BME280;47575;52.054;4.334;2022-12-29T05:21:32;100087.88;;;9.85;100.00
61678;BME280;47575;52.054;4.334;2022-12-29T05:23:59;100080.88;;;9.86;100.00
61678;BME280;47575;52.054;4.334;2022-12-29T05:26:27;100077.59;;;9.81;100.00
61678;BME280;47575;52.054;4.334;2022-12-29T05:29:00;100084.50;;;9.82;100.00
61678;BME280;47575;52.054;4.334;2022-12-29T05:31:27;100090.41;;;9.87;100.00
61678;BME280;47575;52.054;4.334;2022-12-29T05:33:54;100088.66;;;9.87;100.00
61678;BME280;47575;52.054;4.334;2022-12-29T05:36:22;100088.78;;;9.84;100.00
61678;BME280;47575;52.054;4.334;2022-12-29T05:38:53;100091.44;;;9.83;100.00
61678;BME280;47575;52.054;4.334;2022-12-29T05:41:20;100096.63;;;9.84;100.00
61678;BME280;47575;52.054;4.334;2022-12-29T05:44:00;100107.13;;;9.83;100.00
61678;BME280;47575;52.054;4.334;2022-12-29T05:46:30;100097.59;;;9.82;100.00
61678;BME280;47575;52.054;4.334;2022-12-29T05:49:07;100107.19;;;9.81;100.00
61678;BME280;47575;52.054;4.334;2022-12-29T05:51:47;100100.28;;;9.80;100.00
61678;BME280;47575;52.054;4.334;2022-12-29T05:54:14;100113.47;;;9.77;100.00
61678;BME280;47575;52.054;4.334;2022-12-29T05:56:41;100118.63;;;9.79;100.00
61678;BME280;47575;52.054;4.334;2022-12-29T05:59:10;100112.50;;;9.80;100.00
61678;BME280;47575;52.054;4.334;2022-12-29T06:01:37;100116.88;;;9.79;100.00
61678;BME280;47575;52.054;4.334;2022-12-29T06:04:04;100111.78;;;9.76;100.00
61678;BME280;47575;52.054;4.334;2022-12-29T06:06:31;100105.56;;;9.79;100.00
61678;BME280;47575;52.054;4.334;2022-12-29T06:08:58;100105.66;;;9.76;100.00
61678;BME280;47575;52.054;4.334;2022-12-29T06:11:25;100117.19;;;9.71;100.00
61678;BME280;47575;52.054;4.334;2022-12-29T06:13:56;100125.16;;;9.68;100.00
61678;BME280;47575;52.054;4.334;2022-12-29T06:16:25;100117.34;;;9.67;100.00
61678;BME280;47575;52.054;4.334;2022-12-29T06:18:55;100118.41;;;9.63;100.00
61678;BME280;47575;52.054;4.334;2022-12-29T06:21:22;100100.28;;;9.58;100.00
61678;BME280;47575;52.054;4.334;2022-12-29T06:23:49;100113.41;;;9.57;100.00
61678;BME280;47575;52.054;4.334;2022-12-29T06:26:16;100119.63;;;9.54;100.00
61678;BME280;47575;52.054;4.334;2022-12-29T06:28:45;100112.66;;;9.53;100.00
61678;BME280;47575;52.054;4.334;2022-12-29T06:31:12;100123.84;;;9.57;100.00
61678;BME280;47575;52.054;4.334;2022-12-29T06:33:41;100117.59;;;9.61;100.00
61678;BME280;47575;52.054;4.334;2022-12-29T06:36:09;100118.25;;;9.66;100.00
61678;BME280;47575;52.054;4.334;2022-12-29T06:38:36;100119.03;;;9.68;100.00
61678;BME280;47575;52.054;4.334;2022-12-29T06:41:04;100105.44;;;9.82;100.00
61678;BME280;47575;52.054;4.334;2022-12-29T06:43:34;100111.41;;;9.85;100.00
61678;BME280;47575;52.054;4.334;2022-12-29T06:46:07;100100.16;;;9.83;100.00
61678;BME280;47575;52.054;4.334;2022-12-29T06:48:34;100101.03;;;9.82;100.00
61678;BME280;47575;52.054;4.334;2022-12-29T06:51:03;100109.09;;;9.78;100.00
61678;BME280;47575;52.054;4.334;2022-12-29T06:53:30;100093.66;;;9.71;100.00
61678;BME280;47575;52.054;4.334;2022-12-29T06:55:59;100113.81;;;9.68;100.00
61678;BME280;47575;52.054;4.334;2022-12-29T06:58:26;100101.50;;;9.71;100.00
61678;BME280;47575;52.054;4.334;2022-12-29T07:00:53;100097.97;;;9.73;100.00
61678;BME280;47575;52.054;4.334;2022-12-29T07:03:20;100101.66;;;9.67;100.00
61678;BME280;47575;52.054;4.334;2022-12-29T07:05:47;100090.31;;;9.68;100.00
61678;BME280;47575;52.054;4.334;2022-12-29T07:08:16;100100.97;;;9.63;100.00
61678;BME280;47575;52.054;4.334;2022-12-29T07:10:43;100100.03;;;9.64;100.00
61678;BME280;47575;52.054;4.334;2022-12-29T07:13:10;100104.41;;;9.64;100.00
61678;BME280;47575;52.054;4.334;2022-12-29T07:15:37;100114.94;;;9.62;100.00
61678;BME280;47575;52.054;4.334;2022-12-29T07:18:04;100098.34;;;9.63;100.00
61678;BME280;47575;52.054;4.334;2022-12-29T07:20:31;100099.13;;;9.65;100.00
61678;BME280;47575;52.054;4.334;2022-12-29T07:22:58;100089.53;;;9.66;100.00
61678;BME280;47575;52.054;4.334;2022-12-29T07:25:27;100090.25;;;9.69;100.00
61678;BME280;47575;52.054;4.334;2022-12-29T07:27:55;100084.13;;;9.70;100.00
61678;BME280;47575;52.054;4.334;2022-12-29T07:30:22;100083.19;;;9.71;100.00
61678;BME280;47575;52.054;4.334;2022-12-29T07:32:49;100087.34;;;9.77;100.00
61678;BME280;47575;52.054;4.334;2022-12-29T07:35:16;100093.19;;;9.82;100.00
61678;BME280;47575;52.054;4.334;2022-12-29T07:37:43;100087.09;;;9.83;100.00
61678;BME280;47575;52.054;4.334;2022-12-29T07:40:10;100096.66;;;9.83;100.00
61678;BME280;47575;52.054;4.334;2022-12-29T07:42:39;100087.94;;;9.84;100.00
61678;BME280;47575;52.054;4.334;2022-12-29T07:45:08;100087.78;;;9.87;100.00
61678;BME280;47575;52.054;4.334;2022-12-29T07:47:47;100074.88;;;9.84;100.00
61678;BME280;47575;52.054;4.334;2022-12-29T07:50:14;100079.34;;;9.80;100.00
61678;BME280;47575;52.054;4.334;2022-12-29T07:52:41;100067.28;;;9.78;100.00
61678;BME280;47575;52.054;4.334;2022-12-29T07:55:08;100082.16;;;9.76;100.00
61678;BME280;47575;52.054;4.334;2022-12-29T07:57:35;100075.28;;;9.73;100.00
61678;BME280;47575;52.054;4.334;2022-12-29T08:00:04;100080.59;;;9.71;100.00
61678;BME280;47575;52.054;4.334;2022-12-29T08:02:37;100088.44;;;9.71;100.00
61678;BME280;47575;52.054;4.334;2022-12-29T08:05:05;100095.34;;;9.73;100.00
61678;BME280;47575;52.054;4.334;2022-12-29T08:07:34;100094.69;;;9.67;100.00
61678;BME280;47575;52.054;4.334;2022-12-29T08:10:01;100106.03;;;9.66;100.00
61678;BME280;47575;52.054;4.334;2022-12-29T08:12:28;100119.25;;;9.63;100.00
61678;BME280;47575;52.054;4.334;2022-12-29T08:14:55;100101.34;;;9.54;100.00
61678;BME280;47575;52.054;4.334;2022-12-29T08:17:24;100116.47;;;9.46;100.00
61678;BME280;47575;52.054;4.334;2022-12-29T08:19:51;100103.50;;;9.43;100.00
61678;BME280;47575;52.054;4.334;2022-12-29T08:22:18;100115.78;;;9.41;100.00
61678;BME280;47575;52.054;4.334;2022-12-29T08:24:46;100132.38;;;9.40;100.00
61678;BME280;47575;52.054;4.334;2022-12-29T08:27:13;100139.28;;;9.41;100.00
61678;BME280;47575;52.054;4.334;2022-12-29T08:29:40;100157.66;;;9.38;100.00
61678;BME280;47575;52.054;4.334;2022-12-29T08:32:07;100157.09;;;9.30;100.00
61678;BME280;47575;52.054;4.334;2022-12-29T08:34:36;100155.53;;;9.26;100.00
61678;BME280;47575;52.054;4.334;2022-12-29T08:37:03;100172.06;;;9.26;100.00
61678;BME280;47575;52.054;4.334;2022-12-29T08:39:30;100173.69;;;9.29;100.00
61678;BME280;47575;52.054;4.334;2022-12-29T08:41:57;100168.75;;;9.21;100.00
61678;BME280;47575;52.054;4.334;2022-12-29T08:44:24;100188.06;;;9.17;100.00
61678;BME280;47575;52.054;4.334;2022-12-29T08:46:51;100192.66;;;9.10;100.00
61678;BME280;47575;52.054;4.334;2022-12-29T08:49:18;100176.09;;;9.11;100.00
61678;BME280;47575;52.054;4.334;2022-12-29T08:51:46;100173.41;;;9.13;100.00
61678;BME280;47575;52.054;4.334;2022-12-29T08:54:13;100182.94;;;9.14;100.00
61678;BME280;47575;52.054;4.334;2022-12-29T08:56:41;100190.72;;;9.15;100.00
61678;BME280;47575;52.054;4.334;2022-12-29T08:59:08;100196.78;;;9.16;100.00
61678;BME280;47575;52.054;4.334;2022-12-29T09:01:36;100223.50;;;9.24;100.00
61678;BME280;47575;52.054;4.334;2022-12-29T09:04:06;100222.75;;;9.21;100.00
61678;BME280;47575;52.054;4.334;2022-12-29T09:06:32;100237.44;;;9.23;100.00
61678;BME280;47575;52.054;4.334;2022-12-29T09:09:01;100253.09;;;9.23;100.00
61678;BME280;47575;52.054;4.334;2022-12-29T09:11:28;100254.91;;;9.21;100.00
61678;BME280;47575;52.054;4.334;2022-12-29T09:13:55;100257.38;;;9.26;100.00
61678;BME280;47575;52.054;4.334;2022-12-29T09:16:22;100266.84;;;9.28;100.00
61678;BME280;47575;52.054;4.334;2022-12-29T09:18:50;100283.38;;;9.29;100.00
61678;BME280;47575;52.054;4.334;2022-12-29T09:21:17;100290.19;;;9.33;100.00
61678;BME280;47575;52.054;4.334;2022-12-29T09:23:44;100288.22;;;9.39;100.00
61678;BME280;47575;52.054;4.334;2022-12-29T09:26:12;100288.16;;;9.41;100.00
61678;BME280;47575;52.054;4.334;2022-12-29T09:28:39;100300.16;;;9.47;100.00
61678;BME280;47575;52.054;4.334;2022-12-29T09:31:06;100304.97;;;9.57;100.00
61678;BME280;47575;52.054;4.334;2022-12-29T09:33:34;100311.75;;;9.63;100.00
61678;BME280;47575;52.054;4.334;2022-12-29T09:36:01;100313.31;;;9.67;100.00
61678;BME280;47575;52.054;4.334;2022-12-29T09:38:28;100341.06;;;9.71;100.00
61678;BME280;47575;52.054;4.334;2022-12-29T09:40:56;100329.69;;;9.72;100.00
61678;BME280;47575;52.054;4.334;2022-12-29T09:43:35;100344.41;;;9.75;100.00
61678;BME280;47575;52.054;4.334;2022-12-29T09:46:08;100340.84;;;9.77;100.00
61678;BME280;47575;52.054;4.334;2022-12-29T09:48:41;100353.00;;;9.78;100.00
61678;BME280;47575;52.054;4.334;2022-12-29T09:51:10;100361.53;;;9.83;100.00
61678;BME280;47575;52.054;4.334;2022-12-29T09:53:39;100371.91;;;9.85;100.00
61678;BME280;47575;52.054;4.334;2022-12-29T09:56:10;100390.22;;;9.85;100.00
61678;BME280;47575;52.054;4.334;2022-12-29T09:58:42;100388.47;;;9.85;100.00
61678;BME280;47575;52.054;4.334;2022-12-29T10:01:14;100396.34;;;9.84;100.00
61678;BME280;47575;52.054;4.334;2022-12-29T10:03:45;100399.63;;;9.89;100.00
61678;BME280;47575;52.054;4.334;2022-12-29T10:06:14;100410.78;;;10.17;100.00
61678;BME280;47575;52.054;4.334;2022-12-29T10:08:44;100429.81;;;10.46;100.00
61678;BME280;47575;52.054;4.334;2022-12-29T10:11:18;100426.47;;;10.64;100.00
61678;BME280;47575;52.054;4.334;2022-12-29T10:13:52;100434.19;;;10.45;100.00
61678;BME280;47575;52.054;4.334;2022-12-29T10:16:29;100438.22;;;10.31;100.00
61678;BME280;47575;52.054;4.334;2022-12-29T10:19:04;100444.06;;;10.14;100.00
61678;BME280;47575;52.054;4.334;2022-12-29T10:21:39;100445.50;;;9.97;100.00
61678;BME280;47575;52.054;4.334;2022-12-29T10:24:10;100452.31;;;10.26;100.00
61678;BME280;47575;52.054;4.334;2022-12-29T10:26:39;100454.81;;;10.53;100.00
61678;BME280;47575;52.054;4.334;2022-12-29T10:29:14;100458.72;;;10.65;100.00
61678;BME280;47575;52.054;4.334;2022-12-29T10:31:43;100461.09;;;10.71;100.00
61678;BME280;47575;52.054;4.334;2022-12-29T10:34:14;100468.97;;;10.71;100.00
61678;BME280;47575;52.054;4.334;2022-12-29T10:36:42;100473.78;;;10.81;100.00
61678;BME280;47575;52.054;4.334;2022-12-29T10:39:13;100482.56;;;10.80;100.00
61678;BME280;47575;52.054;4.334;2022-12-29T10:41:44;100478.19;;;10.81;100.00
61678;BME280;47575;52.054;4.334;2022-12-29T10:44:16;100481.97;;;10.72;100.00
61678;BME280;47575;52.054;4.334;2022-12-29T10:46:45;100477.94;;;10.64;100.00
61678;BME280;47575;52.054;4.334;2022-12-29T10:49:15;100484.00;;;10.66;100.00
61678;BME280;47575;52.054;4.334;2022-12-29T10:51:43;100478.47;;;10.73;100.00
61678;BME280;47575;52.054;4.334;2022-12-29T10:54:13;100470.91;;;10.66;100.00
61678;BME280;47575;52.054;4.334;2022-12-29T10:56:42;100477.31;;;10.57;100.00
61678;BME280;47575;52.054;4.334;2022-12-29T10:59:22;100477.75;;;10.46;100.00
61678;BME280;47575;52.054;4.334;2022-12-29T11:01:53;100481.16;;;10.48;100.00
61678;BME280;47575;52.054;4.334;2022-12-29T11:04:29;100477.97;;;10.40;100.00
61678;BME280;47575;52.054;4.334;2022-12-29T11:07:01;100496.56;;;10.56;100.00
61678;BME280;47575;52.054;4.334;2022-12-29T11:09:28;100493.38;;;10.93;100.00
61678;BME280;47575;52.054;4.334;2022-12-29T11:11:56;100499.16;;;11.23;100.00
61678;BME280;47575;52.054;4.334;2022-12-29T11:14:26;100475.78;;;11.41;100.00
61678;BME280;47575;52.054;4.334;2022-12-29T11:16:57;100483.56;;;11.42;100.00
61678;BME280;47575;52.054;4.334;2022-12-29T11:19:25;100481.13;;;11.37;100.00
61678;BME280;47575;52.054;4.334;2022-12-29T11:21:53;100485.59;;;11.35;100.00
61678;BME280;47575;52.054;4.334;2022-12-29T11:24:22;100470.19;;;11.28;100.00
61678;BME280;47575;52.054;4.334;2022-12-29T11:26:50;100464.47;;;11.18;100.00
61678;BME280;47575;52.054;4.334;2022-12-29T11:29:22;100472.06;;;11.02;100.00
61678;BME280;47575;52.054;4.334;2022-12-29T11:31:51;100464.28;;;11.01;100.00
61678;BME280;47575;52.054;4.334;2022-12-29T11:34:21;100465.97;;;11.24;100.00
61678;BME280;47575;52.054;4.334;2022-12-29T11:36:49;100471.88;;;11.29;100.00
61678;BME280;47575;52.054;4.334;2022-12-29T11:39:25;100467.34;;;11.12;100.00
61678;BME280;47575;52.054;4.334;2022-12-29T11:41:53;100468.41;;;11.28;100.00
61678;BME280;47575;52.054;4.334;2022-12-29T11:44:20;100458.19;;;11.22;100.00
61678;BME280;47575;52.054;4.334;2022-12-29T11:46:48;100463.56;;;11.19;100.00
61678;BME280;47575;52.054;4.334;2022-12-29T11:49:19;100446.75;;;11.25;100.00
61678;BME280;47575;52.054;4.334;2022-12-29T11:51:48;100434.00;;;11.16;100.00
61678;BME280;47575;52.054;4.334;2022-12-29T11:54:17;100432.75;;;11.04;100.00
61678;BME280;47575;52.054;4.334;2022-12-29T11:56:46;100421.97;;;10.90;100.00
61678;BME280;47575;52.054;4.334;2022-12-29T12:02:00;100419.91;;;10.76;100.00
61678;BME280;47575;52.054;4.334;2022-12-29T12:04:31;100430.38;;;10.76;100.00
61678;BME280;47575;52.054;4.334;2022-12-29T12:07:03;100427.81;;;10.74;100.00
61678;BME280;47575;52.054;4.334;2022-12-29T12:09:35;100432.44;;;10.68;100.00
61678;BME280;47575;52.054;4.334;2022-12-29T12:12:03;100431.03;;;10.59;100.00
61678;BME280;47575;52.054;4.334;2022-12-29T12:14:31;100430.91;;;10.62;100.00
61678;BME280;47575;52.054;4.334;2022-12-29T12:17:10;100442.97;;;10.66;100.00
61678;BME280;47575;52.054;4.334;2022-12-29T12:19:40;100452.47;;;10.69;100.00
61678;BME280;47575;52.054;4.334;2022-12-29T12:22:13;100449.69;;;10.73;100.00
61678;BME280;47575;52.054;4.334;2022-12-29T12:24:43;100455.88;;;10.71;100.00
61678;BME280;47575;52.054;4.334;2022-12-29T12:27:15;100447.84;;;10.75;100.00
61678;BME280;47575;52.054;4.334;2022-12-29T12:29:46;100453.88;;;10.77;100.00
61678;BME280;47575;52.054;4.334;2022-12-29T12:32:17;100466.25;;;10.74;100.00
61678;BME280;47575;52.054;4.334;2022-12-29T12:34:46;100456.16;;;10.63;100.00
61678;BME280;47575;52.054;4.334;2022-12-29T12:37:26;100457.88;;;10.64;100.00
61678;BME280;47575;52.054;4.334;2022-12-29T12:40:07;100460.44;;;10.66;100.00
61678;BME280;47575;52.054;4.334;2022-12-29T12:42:41;100466.63;;;10.63;100.00
61678;BME280;47575;52.054;4.334;2022-12-29T12:45:23;100473.63;;;10.63;100.00
61678;BME280;47575;52.054;4.334;2022-12-29T12:47:57;100474.31;;;10.68;100.00
61678;BME280;47575;52.054;4.334;2022-12-29T12:50:30;100482.28;;;10.65;100.00
61678;BME280;47575;52.054;4.334;2022-12-29T12:53:04;100467.31;;;10.68;100.00
61678;BME280;47575;52.054;4.334;2022-12-29T12:55:39;100471.22;;;10.58;100.00
61678;BME280;47575;52.054;4.334;2022-12-29T12:58:12;100471.88;;;10.63;100.00
61678;BME280;47575;52.054;4.334;2022-12-29T13:00:45;100484.84;;;10.66;100.00
61678;BME280;47575;52.054;4.334;2022-12-29T13:03:19;100473.47;;;10.67;100.00
61678;BME280;47575;52.054;4.334;2022-12-29T13:05:55;100471.78;;;10.66;100.00
61678;BME280;47575;52.054;4.334;2022-12-29T13:11:13;100473.41;;;10.69;100.00